Terminal Aerodrome Forecast
Issued by NWS Bismarck, ND

Home | Current Version | Previous Version | Text Only | Print | Product List | Glossary On
Versions: 1 2 3 4 5 6 7 8 9 10 11 12 13
000
FTUS43 KBIS 240500
TAFISN
TAF
KISN 240531Z 2406/2506 22006KT P6SM SCT100 BKN250
     FM241500 25010KT P6SM SCT100 BKN250
     FM241800 28018G24KT P6SM SCT100 BKN250
     FM250100 25006KT P6SM SCT100 BKN250=

USA.gov is the U.S. government's official web portal to all federal, state and local government web resources and services.